Time;durP1;ratioP1;P1;durP2;ratioP2;P2;SDS_P1;SDS_P2;PMS_P1;PMS_P2;Temp;Humidity;BMP_temperature;BMP_pressure;BME280_temperature;BME280_humidity;BME280_pressure;Samples;Min_cycle;Max_cycle;Signal;HPM_P1;HPM_P2
2023/08/06 02:22:59;;;;;;;22.40;9.32;;;;;;;;;;5377024;23;20073;-83
2023/08/06 02:25:32;;;;;;;21.50;9.50;;;;;;;;;;4824421;29;20081;-82
2023/08/06 02:28:02;;;;;;;20.35;8.68;;;;;;;;;;4841085;29;20060;-82
2023/08/06 02:30:34;;;;;;;15.75;8.48;;;;;;;;;;4840950;29;20054;-83
2023/08/06 02:33:32;;;;;;;18.63;9.18;;;;;;;;;;4825333;29;20062;-84
2023/08/06 02:36:04;;;;;;;16.33;9.25;;;;;;;;;;4824092;29;20054;-82
2023/08/06 02:38:35;;;;;;;21.33;8.73;;;;;;;;;;4840876;29;20061;-84
2023/08/06 02:41:05;;;;;;;19.27;9.45;;;;;;;;;;4840914;29;20050;-83
2023/08/06 02:43:37;;;;;;;20.40;10.38;;;;;;;;;;4809544;29;20054;-83
2023/08/06 02:46:09;;;;;;;18.17;9.45;;;;;;;;;;4824803;29;20057;-84
2023/08/06 02:48:41;;;;;;;18.73;9.18;;;;;;;;;;4824360;29;20084;-82
2023/08/06 02:51:11;;;;;;;22.83;9.80;;;;;;;;;;4809007;29;20053;-82
2023/08/06 02:53:44;;;;;;;17.67;9.40;;;;;;;;;;4825007;29;20042;-82
2023/08/06 02:56:19;;;;;;;24.65;9.27;;;;;;;;;;4809429;29;20080;-82
2023/08/06 02:58:59;;;;;;;18.75;8.80;;;;;;;;;;4824438;29;20495;-82
2023/08/06 03:01:57;;;;;;;19.23;9.48;;;;;;;;;;4823661;29;20054;-82
2023/08/06 03:04:37;;;;;;;23.85;10.15;;;;;;;;;;4823586;29;20058;-83
2023/08/06 03:07:10;;;;;;;18.27;8.93;;;;;;;;;;4823633;29;20506;-82
2023/08/06 03:09:51;;;;;;;28.88;9.20;;;;;;;;;;4823638;29;20064;-82
2023/08/06 03:12:23;;;;;;;18.95;9.25;;;;;;;;;;4823309;29;20054;-83
2023/08/06 03:14:55;;;;;;;23.15;9.70;;;;;;;;;;4823227;29;20084;-84
2023/08/06 03:17:31;;;;;;;19.95;8.90;;;;;;;;;;4823731;29;20065;-82
2023/08/06 03:20:05;;;;;;;16.75;9.57;;;;;;;;;;4823619;29;20073;-82
2023/08/06 03:22:40;;;;;;;21.10;9.32;;;;;;;;;;4833165;29;20363;-82
2023/08/06 03:25:11;;;;;;;21.83;9.70;;;;;;;;;;4841275;29;20053;-81
2023/08/06 03:27:46;;;;;;;21.00;9.55;;;;;;;;;;4841106;29;20061;-83
2023/08/06 03:30:19;;;;;;;22.70;10.05;;;;;;;;;;4842521;29;20056;-83
2023/08/06 03:32:52;;;;;;;19.10;9.43;;;;;;;;;;4840989;29;20054;-83
2023/08/06 03:35:24;;;;;;;23.33;10.85;;;;;;;;;;4840709;29;20054;-83
2023/08/06 03:37:57;;;;;;;22.85;10.57;;;;;;;;;;4841408;29;20050;-83
2023/08/06 03:40:29;;;;;;;21.98;10.65;;;;;;;;;;4841403;29;20054;-83
2023/08/06 03:43:00;;;;;;;23.67;10.80;;;;;;;;;;4841261;29;20058;-83
2023/08/06 03:45:56;;;;;;;26.08;11.88;;;;;;;;;;4840135;29;20058;-84
2023/08/06 03:48:27;;;;;;;26.05;12.65;;;;;;;;;;4840823;29;20417;-82
2023/08/06 03:51:01;;;;;;;22.70;11.00;;;;;;;;;;4840894;29;20053;-83
2023/08/06 03:53:35;;;;;;;25.25;11.57;;;;;;;;;;4840814;29;20409;-83
2023/08/06 03:56:05;;;;;;;23.92;11.70;;;;;;;;;;4840912;29;20088;-83
2023/08/06 03:58:39;;;;;;;24.38;10.93;;;;;;;;;;4840774;29;20050;-83
2023/08/06 04:01:09;;;;;;;21.13;10.45;;;;;;;;;;4840578;29;20061;-82
2023/08/06 04:03:46;;;;;;;20.88;9.70;;;;;;;;;;4840061;29;20050;-83
2023/08/06 04:06:16;;;;;;;23.88;11.00;;;;;;;;;;4840707;29;20429;-84
2023/08/06 04:08:48;;;;;;;29.42;12.45;;;;;;;;;;4841837;29;20398;-84
2023/08/06 04:11:18;;;;;;;21.25;11.25;;;;;;;;;;4841652;29;20050;-83
2023/08/06 04:13:51;;;;;;;23.23;10.60;;;;;;;;;;4843425;29;20070;-82
2023/08/06 04:16:22;;;;;;;26.80;10.80;;;;;;;;;;4845082;29;20065;-82
2023/08/06 04:18:55;;;;;;;30.08;10.73;;;;;;;;;;4843441;29;20054;-82
2023/08/06 04:21:26;;;;;;;20.65;9.73;;;;;;;;;;4843955;29;20050;-83
2023/08/06 04:23:57;;;;;;;21.63;10.40;;;;;;;;;;4845225;29;20065;-83
2023/08/06 04:26:30;;;;;;;25.80;10.35;;;;;;;;;;4843217;29;20057;-82
2023/08/06 04:29:04;;;;;;;21.27;10.18;;;;;;;;;;4845331;29;20058;-83
2023/08/06 04:31:36;;;;;;;21.67;10.32;;;;;;;;;;4829201;29;20050;-82
2023/08/06 04:34:09;;;;;;;22.48;10.02;;;;;;;;;;4843769;29;20054;-82
2023/08/06 04:36:41;;;;;;;22.95;9.60;;;;;;;;;;4843004;29;20054;-82
2023/08/06 04:39:14;;;;;;;20.60;9.23;;;;;;;;;;4843609;29;20498;-82
2023/08/06 04:41:44;;;;;;;18.38;9.20;;;;;;;;;;4843351;29;20058;-83
2023/08/06 04:44:19;;;;;;;24.58;9.88;;;;;;;;;;4842709;29;20406;-83
2023/08/06 04:46:50;;;;;;;23.00;9.60;;;;;;;;;;4842524;29;20058;-83
2023/08/06 04:49:23;;;;;;;21.38;10.02;;;;;;;;;;4844766;29;20478;-83
2023/08/06 04:51:53;;;;;;;;;;;;;;;;;;4845110;29;20054;-83
2023/08/06 04:54:23;;;;;;;19.85;9.65;;;;;;;;;;4842712;29;19932;-83
2023/08/06 04:56:55;;;;;;;21.88;10.32;;;;;;;;;;4844729;29;20057;-82
2023/08/06 04:59:27;;;;;;;19.20;9.55;;;;;;;;;;4842269;29;20058;-83
2023/08/06 05:02:02;;;;;;;18.08;9.23;;;;;;;;;;4844334;29;20050;-82
2023/08/06 05:04:33;;;;;;;21.52;10.00;;;;;;;;;;4844498;29;20050;-82
2023/08/06 05:07:05;;;;;;;17.65;10.13;;;;;;;;;;4842117;29;20164;-82
2023/08/06 05:09:41;;;;;;;21.55;9.75;;;;;;;;;;4844286;29;20050;-82
2023/08/06 05:12:12;;;;;;;21.55;10.93;;;;;;;;;;4842883;29;20406;-82
2023/08/06 05:14:43;;;;;;;26.23;10.65;;;;;;;;;;4842741;29;20065;-82
2023/08/06 05:17:15;;;;;;;23.00;10.10;;;;;;;;;;4843960;29;20054;-82
2023/08/06 05:19:49;;;;;;;21.80;10.07;;;;;;;;;;4842827;29;20504;-82
2023/08/06 05:22:19;;;;;;;21.80;10.02;;;;;;;;;;4842759;29;20058;-82
2023/08/06 05:24:49;;;;;;;21.75;10.20;;;;;;;;;;4842012;29;20050;-81
2023/08/06 05:27:19;;;;;;;16.95;9.15;;;;;;;;;;4841864;29;20058;-82
2023/08/06 05:29:50;;;;;;;20.77;8.90;;;;;;;;;;4843844;29;20042;-82
2023/08/06 05:32:21;;;;;;;16.48;9.35;;;;;;;;;;4844242;29;20056;-82
2023/08/06 05:34:54;;;;;;;21.60;9.55;;;;;;;;;;4844119;29;20072;-82
2023/08/06 05:37:24;;;;;;;17.63;8.13;;;;;;;;;;4842718;29;20073;-82
2023/08/06 05:39:55;;;;;;;18.77;8.75;;;;;;;;;;4843788;29;20054;-82
2023/08/06 05:42:28;;;;;;;21.77;9.65;;;;;;;;;;4843664;29;20057;-82
2023/08/06 05:45:02;;;;;;;21.77;11.00;;;;;;;;;;4843330;29;20081;-82
2023/08/06 05:47:33;;;;;;;20.73;9.20;;;;;;;;;;4841242;29;20054;-82
2023/08/06 05:50:03;;;;;;;18.08;8.70;;;;;;;;;;4843247;29;20045;-82
2023/08/06 05:52:35;;;;;;;21.70;9.40;;;;;;;;;;4843618;29;20050;-82
2023/08/06 05:55:14;;;;;;;17.85;8.38;;;;;;;;;;4843686;29;20402;-82
2023/08/06 05:57:46;;;;;;;23.80;9.05;;;;;;;;;;4843324;29;20053;-82
2023/08/06 06:00:17;;;;;;;21.27;9.35;;;;;;;;;;4842083;29;20103;-81
2023/08/06 06:02:47;;;;;;;17.88;8.23;;;;;;;;;;4843352;29;20054;-82
2023/08/06 06:05:21;;;;;;;18.70;8.75;;;;;;;;;;4843225;29;20042;-83
2023/08/06 06:07:52;;;;;;;23.50;8.73;;;;;;;;;;4841620;29;20058;-82
2023/08/06 06:10:24;;;;;;;23.17;9.27;;;;;;;;;;4843094;29;20057;-82
2023/08/06 06:12:53;;;;;;;18.00;8.45;;;;;;;;;;4843150;29;20057;-82
2023/08/06 06:15:26;;;;;;;19.83;8.50;;;;;;;;;;4827257;29;20054;-81
2023/08/06 06:18:00;;;;;;;21.40;8.73;;;;;;;;;;4843013;29;20050;-82
2023/08/06 06:20:34;;;;;;;16.58;8.63;;;;;;;;;;4841880;29;20058;-82
2023/08/06 06:23:07;;;;;;;16.80;8.50;;;;;;;;;;4841450;29;20062;-82
2023/08/06 06:25:37;;;;;;;20.83;7.95;;;;;;;;;;4842645;29;20050;-81
2023/08/06 06:28:08;;;;;;;21.80;8.93;;;;;;;;;;4841773;29;20064;-81
2023/08/06 06:30:41;;;;;;;23.25;9.57;;;;;;;;;;4842230;29;20054;-81
2023/08/06 06:33:12;;;;;;;17.70;8.05;;;;;;;;;;4841744;29;20513;-81
2023/08/06 06:35:45;;;;;;;17.40;7.82;;;;;;;;;;4843023;29;20054;-81
2023/08/06 06:38:15;;;;;;;16.25;8.88;;;;;;;;;;4842433;29;20054;-80
2023/08/06 06:40:57;;;;;;;16.52;8.60;;;;;;;;;;4842755;29;20516;-81
2023/08/06 06:43:32;;;;;;;16.27;8.25;;;;;;;;;;4842769;29;20062;-82
2023/08/06 06:46:04;;;;;;;18.35;7.80;;;;;;;;;;4841417;29;20057;-81
2023/08/06 06:48:34;;;;;;;18.33;7.95;;;;;;;;;;4842406;29;20050;-81
2023/08/06 06:51:05;;;;;;;20.45;8.10;;;;;;;;;;4841372;29;20493;-81
2023/08/06 06:53:36;;;;;;;18.38;8.30;;;;;;;;;;4843293;29;20050;-81
2023/08/06 06:56:08;;;;;;;19.10;8.50;;;;;;;;;;4841923;29;20088;-81
2023/08/06 06:58:40;;;;;;;17.73;9.35;;;;;;;;;;4843143;29;20069;-81
2023/08/06 07:01:11;;;;;;;16.75;7.88;;;;;;;;;;4842974;29;20049;-82
2023/08/06 07:03:44;;;;;;;20.77;8.35;;;;;;;;;;4842336;29;20042;-81
2023/08/06 07:06:18;;;;;;;17.77;7.97;;;;;;;;;;4841474;29;20050;-82
2023/08/06 07:08:51;;;;;;;15.48;7.43;;;;;;;;;;4840614;29;20049;-81
2023/08/06 07:11:21;;;;;;;16.85;8.85;;;;;;;;;;4842884;29;20050;-81
2023/08/06 07:13:59;;;;;;;18.80;8.68;;;;;;;;;;4842293;29;20061;-81
2023/08/06 07:16:33;;;;;;;16.23;7.95;;;;;;;;;;4842316;29;20057;-82
2023/08/06 07:19:05;;;;;;;15.50;7.72;;;;;;;;;;4842659;29;20058;-81
2023/08/06 07:21:36;;;;;;;18.80;7.80;;;;;;;;;;4842174;29;20082;-82
2023/08/06 07:24:06;;;;;;;18.85;7.88;;;;;;;;;;4842146;29;20500;-81
2023/08/06 07:26:39;;;;;;;15.70;7.97;;;;;;;;;;4840879;29;20046;-81
2023/08/06 07:29:13;;;;;;;13.95;7.65;;;;;;;;;;4842015;29;20049;-82
2023/08/06 07:31:43;;;;;;;14.57;6.78;;;;;;;;;;4841866;29;20061;-82
2023/08/06 07:34:19;;;;;;;16.48;7.43;;;;;;;;;;4842756;29;20046;-81
2023/08/06 07:36:55;;;;;;;14.93;7.28;;;;;;;;;;4842539;29;20505;-82
2023/08/06 07:39:28;;;;;;;15.98;7.72;;;;;;;;;;4841946;29;20046;-81
2023/08/06 07:41:59;;;;;;;15.10;7.32;;;;;;;;;;4841258;29;20054;-81
2023/08/06 07:44:29;;;;;;;15.30;7.93;;;;;;;;;;4841378;29;20053;-82
2023/08/06 07:47:00;;;;;;;14.18;7.38;;;;;;;;;;4842022;29;20065;-82
2023/08/06 07:49:34;;;;;;;20.90;7.15;;;;;;;;;;4844575;29;20057;-82
2023/08/06 07:52:04;;;;;;;16.52;7.93;;;;;;;;;;4843757;29;20425;-82
2023/08/06 07:54:35;;;;;;;12.82;7.10;;;;;;;;;;4845646;29;20070;-82
2023/08/06 07:57:06;;;;;;;21.15;8.35;;;;;;;;;;4842876;29;20041;-82
2023/08/06 07:59:38;;;;;;;17.90;7.20;;;;;;;;;;4844923;29;20050;-81
2023/08/06 08:02:08;;;;;;;13.70;7.10;;;;;;;;;;4844109;29;20057;-81
2023/08/06 08:04:42;;;;;;;19.15;7.97;;;;;;;;;;4845327;29;20054;-81
2023/08/06 08:07:13;;;;;;;18.63;7.78;;;;;;;;;;4828735;29;20521;-82
2023/08/06 08:09:48;;;;;;;18.50;7.93;;;;;;;;;;4845401;29;20398;-81
2023/08/06 08:12:21;;;;;;;18.15;7.88;;;;;;;;;;4845243;29;20042;-81
2023/08/06 08:14:52;;;;;;;16.25;7.30;;;;;;;;;;4829489;29;20057;-81
2023/08/06 08:17:23;;;;;;;14.93;7.32;;;;;;;;;;4828142;29;20069;-82
2023/08/06 08:19:55;;;;;;;23.27;8.02;;;;;;;;;;4828732;29;20050;-81
2023/08/06 08:22:25;;;;;;;15.00;8.00;;;;;;;;;;4844566;29;20054;-82
2023/08/06 08:24:56;;;;;;;18.45;8.38;;;;;;;;;;4828674;29;20053;-81
2023/08/06 08:27:27;;;;;;;20.85;8.35;;;;;;;;;;4844598;29;20046;-81
2023/08/06 08:29:58;;;;;;;18.52;8.73;;;;;;;;;;4845172;29;20050;-81
2023/08/06 08:32:28;;;;;;;14.45;7.53;;;;;;;;;;4828694;29;20065;-81
2023/08/06 08:35:02;;;;;;;15.48;7.13;;;;;;;;;;4844994;29;20046;-80
2023/08/06 08:37:32;;;;;;;21.10;8.23;;;;;;;;;;4845155;29;20049;-81
2023/08/06 08:40:07;;;;;;;21.08;8.60;;;;;;;;;;4844180;29;20057;-80
2023/08/06 08:42:39;;;;;;;18.42;8.15;;;;;;;;;;4844167;29;20057;-81
2023/08/06 08:45:16;;;;;;;19.13;8.45;;;;;;;;;;4844957;29;20417;-80
2023/08/06 08:47:47;;;;;;;16.15;7.43;;;;;;;;;;4844539;29;20486;-82
2023/08/06 08:50:22;;;;;;;15.38;7.28;;;;;;;;;;4844573;29;20060;-81
2023/08/06 08:52:56;;;;;;;15.32;7.63;;;;;;;;;;4844400;29;20422;-81
2023/08/06 08:55:27;;;;;;;19.40;7.93;;;;;;;;;;4812475;29;20054;-81
2023/08/06 08:57:58;;;;;;;18.55;7.18;;;;;;;;;;4844922;29;20054;-81
2023/08/06 09:00:30;;;;;;;18.27;6.90;;;;;;;;;;4827711;29;20061;-81
2023/08/06 09:03:06;;;;;;;14.52;7.75;;;;;;;;;;4855919;29;20420;-81
2023/08/06 09:05:39;;;;;;;12.20;6.57;;;;;;;;;;4833327;29;20049;-81
2023/08/06 09:08:12;;;;;;;16.75;7.22;;;;;;;;;;4844387;29;20140;-81
2023/08/06 09:10:44;;;;;;;14.63;7.28;;;;;;;;;;4828438;29;20065;-80
2023/08/06 09:13:17;;;;;;;14.52;6.72;;;;;;;;;;4828557;29;20050;-81
2023/08/06 09:15:46;;;;;;;15.70;7.15;;;;;;;;;;4843867;29;20049;-81
2023/08/06 09:18:28;;;;;;;15.73;7.45;;;;;;;;;;4827708;29;20379;-81
2023/08/06 09:21:00;;;;;;;16.40;8.13;;;;;;;;;;4828176;29;20053;-80
2023/08/06 09:23:35;;;;;;;15.75;7.53;;;;;;;;;;4844001;29;20058;-81
2023/08/06 09:26:05;;;;;;;15.85;7.80;;;;;;;;;;4827737;29;20061;-81
2023/08/06 09:28:43;;;;;;;14.93;8.00;;;;;;;;;;4843696;29;20057;-80
2023/08/06 09:31:19;;;;;;;19.45;7.13;;;;;;;;;;4843973;29;20049;-81
2023/08/06 09:33:51;;;;;;;17.65;8.75;;;;;;;;;;4828038;29;20406;-81
2023/08/06 09:36:24;;;;;;;18.05;8.80;;;;;;;;;;4843565;29;20046;-81
2023/08/06 09:38:55;;;;;;;22.55;9.35;;;;;;;;;;4843667;29;20054;-81
2023/08/06 09:41:29;;;;;;;22.60;9.40;;;;;;;;;;4843772;29;20073;-81
2023/08/06 09:43:59;;;;;;;22.08;10.48;;;;;;;;;;4843651;29;20042;-81
2023/08/06 09:46:33;;;;;;;21.48;9.32;;;;;;;;;;4843402;29;20042;-80
2023/08/06 09:49:07;;;;;;;22.70;9.93;;;;;;;;;;4827389;29;20064;-81
2023/08/06 09:51:44;;;;;;;22.08;8.88;;;;;;;;;;4843795;29;20050;-80
2023/08/06 09:54:16;;;;;;;16.60;7.72;;;;;;;;;;4843435;29;20049;-82
2023/08/06 09:56:56;;;;;;;19.38;7.95;;;;;;;;;;4826765;29;20053;-81
2023/08/06 09:59:29;;;;;;;13.75;7.38;;;;;;;;;;4842657;29;20057;-81
2023/08/06 10:02:03;;;;;;;19.25;7.72;;;;;;;;;;4843318;29;20046;-80
2023/08/06 10:04:36;;;;;;;20.52;8.20;;;;;;;;;;4843384;29;20050;-81
2023/08/06 10:07:09;;;;;;;17.88;9.00;;;;;;;;;;4843228;29;20521;-81
2023/08/06 10:09:41;;;;;;;22.00;8.82;;;;;;;;;;4826920;29;20058;-81
2023/08/06 10:12:11;;;;;;;21.23;9.32;;;;;;;;;;4842804;29;20053;-81
2023/08/06 10:14:44;;;;;;;;;;;;;;;;;;4844026;29;20474;-82
2023/08/06 10:17:15;;;;;;;18.70;8.20;;;;;;;;;;4843048;29;20295;-82
2023/08/06 10:19:45;;;;;;;17.83;8.45;;;;;;;;;;4843871;29;20385;-81
2023/08/06 10:22:19;;;;;;;21.92;8.73;;;;;;;;;;4842755;29;20054;-81
2023/08/06 10:24:57;;;;;;;20.13;9.40;;;;;;;;;;4843419;29;20057;-81
2023/08/06 10:27:32;;;;;;;17.08;8.73;;;;;;;;;;4827223;29;20156;-81
2023/08/06 10:30:26;;;;;;;15.10;8.35;;;;;;;;;;4826361;29;20057;-82
2023/08/06 10:33:03;;;;;;;15.07;7.85;;;;;;;;;;4842716;29;20049;-82
2023/08/06 10:35:37;;;;;;;16.38;8.40;;;;;;;;;;4830681;29;20518;-82
2023/08/06 10:38:22;;;;;;;18.30;9.05;;;;;;;;;;4822716;29;20054;-81
2023/08/06 10:40:56;;;;;;;17.92;9.95;;;;;;;;;;4811443;29;20046;-81
2023/08/06 10:43:33;;;;;;;20.52;8.95;;;;;;;;;;4840242;29;20054;-81
2023/08/06 10:46:11;;;;;;;20.60;9.95;;;;;;;;;;4840831;29;20050;-81
2023/08/06 10:48:45;;;;;;;20.02;10.27;;;;;;;;;;4839587;29;20056;-82
2023/08/06 10:51:16;;;;;;;22.58;10.23;;;;;;;;;;4839006;29;20046;-81
2023/08/06 10:53:51;;;;;;;17.20;8.98;;;;;;;;;;4840976;29;20050;-81
2023/08/06 10:56:27;;;;;;;16.27;8.55;;;;;;;;;;4840923;29;20057;-83
2023/08/06 10:58:58;;;;;;;20.10;8.60;;;;;;;;;;4840633;29;20583;-81
2023/08/06 11:01:32;;;;;;;19.15;8.43;;;;;;;;;;4840703;29;20046;-81
2023/08/06 11:04:15;;;;;;;20.52;10.52;;;;;;;;;;4858186;29;20046;-82
2023/08/06 11:06:53;;;;;;;22.58;11.50;;;;;;;;;;4843386;29;20108;-81
2023/08/06 11:09:26;;;;;;;22.70;10.70;;;;;;;;;;4848552;29;20065;-82
2023/08/06 11:11:56;;;;;;;28.63;10.73;;;;;;;;;;4840161;29;20041;-81
2023/08/06 11:14:28;;;;;;;22.70;11.30;;;;;;;;;;4840426;29;20070;-81
2023/08/06 11:16:58;;;;;;;19.77;10.15;;;;;;;;;;4840501;29;20046;-82
2023/08/06 11:19:29;;;;;;;21.45;10.18;;;;;;;;;;4824572;29;20081;-82
2023/08/06 11:22:02;;;;;;;20.08;10.07;;;;;;;;;;4839903;29;20057;-82
2023/08/06 11:24:41;;;;;;;23.23;9.93;;;;;;;;;;4843443;29;20050;-82
2023/08/06 11:27:38;;;;;;;20.02;10.30;;;;;;;;;;4828384;29;20050;-82
2023/08/06 11:30:12;;;;;;;23.13;9.80;;;;;;;;;;4844735;29;20473;-82
2023/08/06 11:32:47;;;;;;;22.33;11.13;;;;;;;;;;4812630;29;20073;-83
2023/08/06 11:35:20;;;;;;;20.00;10.18;;;;;;;;;;4826937;29;20513;-82
2023/08/06 11:37:52;;;;;;;21.70;10.95;;;;;;;;;;4844151;29;20560;-82
2023/08/06 11:40:28;;;;;;;22.80;10.88;;;;;;;;;;4827172;29;20050;-81
2023/08/06 11:42:59;;;;;;;21.70;11.43;;;;;;;;;;4827168;29;20541;-81
2023/08/06 11:45:31;;;;;;;23.63;10.70;;;;;;;;;;4843976;29;20430;-83
2023/08/06 11:48:01;;;;;;;25.38;10.68;;;;;;;;;;4843860;29;20060;-82
2023/08/06 11:50:33;;;;;;;19.77;10.82;;;;;;;;;;4843764;29;20046;-82
2023/08/06 11:53:04;;;;;;;23.17;10.55;;;;;;;;;;4860059;29;20061;-82
2023/08/06 11:55:38;;;;;;;19.27;10.15;;;;;;;;;;4862306;29;20054;-82
2023/08/06 11:58:11;;;;;;;17.88;10.38;;;;;;;;;;4861799;29;20076;-82
2023/08/06 12:00:43;;;;;;;17.85;9.27;;;;;;;;;;4862141;29;20046;-81
2023/08/06 12:03:13;;;;;;;18.80;9.75;;;;;;;;;;4850162;29;20454;-81
2023/08/06 12:05:48;;;;;;;20.13;9.07;;;;;;;;;;4827737;29;20050;-82
2023/08/06 12:08:20;;;;;;;18.35;10.48;;;;;;;;;;4843566;29;20094;-82
2023/08/06 12:10:53;;;;;;;20.70;10.73;;;;;;;;;;4843547;29;20773;-82
2023/08/06 12:13:25;;;;;;;19.25;11.02;;;;;;;;;;4843412;29;20062;-81
2023/08/06 12:15:57;;;;;;;20.55;11.38;;;;;;;;;;4843128;29;20060;-82
2023/08/06 12:18:29;;;;;;;22.10;13.02;;;;;;;;;;4826954;29;20061;-81
2023/08/06 12:21:00;;;;;;;24.67;13.32;;;;;;;;;;4842988;29;20375;-82
2023/08/06 12:23:33;;;;;;;22.02;12.65;;;;;;;;;;4823483;29;20073;-83
2023/08/06 12:26:04;;;;;;;21.08;13.25;;;;;;;;;;4824655;29;20057;-81
2023/08/06 12:28:38;;;;;;;22.08;13.20;;;;;;;;;;4827940;29;20054;-81
2023/08/06 12:31:12;;;;;;;20.98;13.43;;;;;;;;;;4844909;29;20054;-81
2023/08/06 12:33:42;;;;;;;22.38;13.32;;;;;;;;;;4845011;29;20054;-81
2023/08/06 12:36:16;;;;;;;30.50;16.45;;;;;;;;;;4845222;29;20050;-81
2023/08/06 12:38:50;;;;;;;28.33;15.98;;;;;;;;;;4845052;29;20053;-81
2023/08/06 12:41:27;;;;;;;23.88;14.73;;;;;;;;;;4844860;29;20049;-82
2023/08/06 12:43:56;;;;;;;23.83;13.27;;;;;;;;;;4842370;29;20068;-81
2023/08/06 12:46:35;;;;;;;25.52;14.25;;;;;;;;;;4844870;29;20054;-82
2023/08/06 12:49:07;;;;;;;20.13;10.32;;;;;;;;;;4841945;29;20061;-83
2023/08/06 12:51:40;;;;;;;22.23;11.15;;;;;;;;;;4825207;29;20053;-83
2023/08/06 12:54:11;;;;;;;22.08;12.70;;;;;;;;;;4825911;29;20054;-83
2023/08/06 12:56:42;;;;;;;24.52;10.30;;;;;;;;;;4826485;29;20062;-82
2023/08/06 12:59:16;;;;;;;17.13;10.70;;;;;;;;;;4825487;29;20058;-82
2023/08/06 13:01:49;;;;;;;24.38;14.80;;;;;;;;;;4826304;29;20394;-82
2023/08/06 13:04:19;;;;;;;19.77;11.40;;;;;;;;;;4826179;29;20050;-82
2023/08/06 13:06:56;;;;;;;22.65;13.27;;;;;;;;;;4825157;29;20079;-85
2023/08/06 13:09:32;;;;;;;30.02;15.85;;;;;;;;;;4824766;29;20055;-82
2023/08/06 13:12:09;;;;;;;29.73;16.75;;;;;;;;;;4824708;29;20042;-82
2023/08/06 13:14:43;;;;;;;35.28;19.63;;;;;;;;;;4824934;29;20057;-83
2023/08/06 13:17:18;;;;;;;35.67;17.50;;;;;;;;;;4824791;29;20057;-82
2023/08/06 13:19:54;;;;;;;33.50;18.27;;;;;;;;;;4823689;29;20050;-83
2023/08/06 13:22:26;;;;;;;23.17;14.82;;;;;;;;;;4805765;29;20422;-82
2023/08/06 13:25:15;;;;;;;12.70;7.15;;;;;;;;;;4809201;29;20491;-82
2023/08/06 13:27:48;;;;;;;16.38;9.27;;;;;;;;;;4807914;29;20058;-80
2023/08/06 13:30:19;;;;;;;16.65;8.52;;;;;;;;;;4806524;29;20059;-80
2023/08/06 13:33:10;;;;;;;11.93;5.15;;;;;;;;;;4807456;29;20050;-83
2023/08/06 13:35:44;;;;;;;10.93;5.00;;;;;;;;;;4807726;29;20050;-81
2023/08/06 13:38:19;;;;;;;9.57;5.50;;;;;;;;;;4819088;29;20075;-80
2023/08/06 13:40:52;;;;;;;9.70;5.25;;;;;;;;;;4821287;29;20046;-81
2023/08/06 13:43:25;;;;;;;11.05;5.32;;;;;;;;;;4823352;29;20489;-81
2023/08/06 13:45:55;;;;;;;10.02;4.65;;;;;;;;;;4825082;29;20074;-83
2023/08/06 13:48:28;;;;;;;10.05;4.75;;;;;;;;;;4824465;29;20050;-82
2023/08/06 13:51:00;;;;;;;8.18;3.97;;;;;;;;;;4825417;29;20054;-81
2023/08/06 13:53:30;;;;;;;9.48;4.63;;;;;;;;;;4824839;29;20042;-83
2023/08/06 13:56:00;;;;;;;10.13;4.60;;;;;;;;;;4823336;29;20057;-82
2023/08/06 13:58:32;;;;;;;10.23;4.47;;;;;;;;;;4823777;29;20046;-84
2023/08/06 14:01:04;;;;;;;10.20;4.20;;;;;;;;;;4823804;29;20421;-82
2023/08/06 14:03:37;;;;;;;14.38;5.88;;;;;;;;;;4822649;29;20046;-82
2023/08/06 14:06:08;;;;;;;11.98;5.10;;;;;;;;;;4824334;29;20058;-82
2023/08/06 14:08:38;;;;;;;10.18;4.72;;;;;;;;;;4824479;29;20050;-83
2023/08/06 14:11:10;;;;;;;17.70;5.20;;;;;;;;;;4821632;29;20057;-81
2023/08/06 14:13:44;;;;;;;7.63;4.30;;;;;;;;;;4823085;29;20067;-84
2023/08/06 14:16:16;;;;;;;9.80;3.63;;;;;;;;;;4822821;29;20057;-82
2023/08/06 14:18:46;;;;;;;12.90;5.63;;;;;;;;;;4824230;29;20088;-83
2023/08/06 14:21:19;;;;;;;11.32;5.50;;;;;;;;;;4824005;29;20050;-83
2023/08/06 14:23:54;;;;;;;10.25;4.40;;;;;;;;;;4821682;29;20058;-82
2023/08/06 14:26:26;;;;;;;10.32;4.93;;;;;;;;;;4824732;29;20103;-82
2023/08/06 14:28:56;;;;;;;10.38;5.22;;;;;;;;;;4825059;29;20376;-82
2023/08/06 14:31:32;;;;;;;16.02;6.53;;;;;;;;;;4823154;29;20398;-81
2023/08/06 14:34:03;;;;;;;7.38;4.47;;;;;;;;;;4822623;29;20502;-84
2023/08/06 14:36:36;;;;;;;12.90;5.15;;;;;;;;;;4824408;29;20050;-84
2023/08/06 14:39:06;;;;;;;9.23;4.28;;;;;;;;;;4824598;29;20055;-82
2023/08/06 14:41:41;;;;;;;7.53;4.03;;;;;;;;;;4822635;29;20054;-84
2023/08/06 14:44:16;;;;;;;7.25;3.40;;;;;;;;;;4824446;29;20482;-83
2023/08/06 14:46:48;;;;;;;9.93;4.55;;;;;;;;;;4823464;29;20046;-83
2023/08/06 14:49:18;;;;;;;10.02;4.53;;;;;;;;;;4824544;29;20482;-84
2023/08/06 14:51:51;;;;;;;18.27;5.63;;;;;;;;;;4825066;29;20053;-85
2023/08/06 14:54:22;;;;;;;7.05;3.08;;;;;;;;;;4821143;29;20058;-83
2023/08/06 14:56:53;;;;;;;9.75;4.30;;;;;;;;;;4804461;29;20051;-83
2023/08/06 14:59:25;;;;;;;8.50;3.95;;;;;;;;;;4803018;29;20063;-82
2023/08/06 15:01:57;;;;;;;13.38;5.03;;;;;;;;;;4803843;29;20051;-84
2023/08/06 15:04:27;;;;;;;10.52;4.22;;;;;;;;;;4805296;29;20053;-83
2023/08/06 15:06:57;;;;;;;6.80;4.13;;;;;;;;;;4826531;29;20054;-82
2023/08/06 15:09:29;;;;;;;7.63;4.35;;;;;;;;;;4840349;29;20469;-83
2023/08/06 15:12:05;;;;;;;7.55;3.65;;;;;;;;;;4837972;29;20065;-82
2023/08/06 15:14:35;;;;;;;7.70;4.03;;;;;;;;;;4840696;29;20069;-83
2023/08/06 15:17:06;;;;;;;6.88;3.63;;;;;;;;;;4840626;29;20077;-83
2023/08/06 15:19:36;;;;;;;9.25;4.40;;;;;;;;;;4840696;29;20398;-83
2023/08/06 15:22:11;;;;;;;8.95;3.40;;;;;;;;;;4842799;29;20065;-82
2023/08/06 15:24:47;;;;;;;8.85;2.60;;;;;;;;;;4858716;29;20057;-85
2023/08/06 15:27:17;;;;;;;7.85;3.95;;;;;;;;;;4857785;29;20064;-85
2023/08/06 15:29:48;;;;;;;8.35;3.63;;;;;;;;;;4858869;29;20056;-83
2023/08/06 15:32:20;;;;;;;13.32;4.68;;;;;;;;;;4855440;29;20057;-82
2023/08/06 15:34:54;;;;;;;11.52;3.45;;;;;;;;;;4825249;29;20070;-82
2023/08/06 15:37:26;;;;;;;9.70;4.25;;;;;;;;;;4842508;29;20054;-84
2023/08/06 15:39:56;;;;;;;10.15;3.67;;;;;;;;;;4825120;29;20061;-82
2023/08/06 15:42:27;;;;;;;6.97;2.45;;;;;;;;;;4841998;29;20050;-83
2023/08/06 15:44:59;;;;;;;10.93;3.10;;;;;;;;;;4841742;29;20049;-84
2023/08/06 15:47:29;;;;;;;10.77;4.05;;;;;;;;;;4839464;29;20498;-84
2023/08/06 15:50:03;;;;;;;9.88;3.17;;;;;;;;;;4840998;29;20501;-84
2023/08/06 15:52:35;;;;;;;6.32;2.55;;;;;;;;;;4824574;29;20050;-84
2023/08/06 15:55:06;;;;;;;11.63;3.15;;;;;;;;;;4842085;29;20462;-83
2023/08/06 15:57:40;;;;;;;13.57;3.47;;;;;;;;;;4825343;29;20058;-83
2023/08/06 16:00:10;;;;;;;7.47;2.65;;;;;;;;;;4826034;29;20477;-83
2023/08/06 16:02:46;;;;;;;8.65;3.17;;;;;;;;;;4842101;29;20094;-82
2023/08/06 16:05:18;;;;;;;10.57;2.75;;;;;;;;;;4825236;29;20383;-83
2023/08/06 16:07:50;;;;;;;9.52;2.90;;;;;;;;;;4841783;29;20050;-83
2023/08/06 16:10:21;;;;;;;8.13;3.03;;;;;;;;;;4843692;29;20050;-83
2023/08/06 16:12:55;;;;;;;8.70;3.47;;;;;;;;;;4845606;29;20072;-84
2023/08/06 16:15:31;;;;;;;7.75;2.80;;;;;;;;;;4845466;29;20509;-82
2023/08/06 16:18:03;;;;;;;11.75;3.00;;;;;;;;;;4845075;29;20046;-83
2023/08/06 16:20:33;;;;;;;8.60;2.95;;;;;;;;;;4805581;29;20117;-81
2023/08/06 16:23:04;;;;;;;8.68;3.17;;;;;;;;;;4838539;29;20061;-82
2023/08/06 16:25:47;;;;;;;11.95;2.92;;;;;;;;;;4826107;29;20049;-81
2023/08/06 16:28:17;;;;;;;10.98;3.08;;;;;;;;;;4808296;29;20498;-82
2023/08/06 16:30:50;;;;;;;5.85;3.08;;;;;;;;;;4840506;29;20049;-83
2023/08/06 16:33:22;;;;;;;8.00;3.08;;;;;;;;;;4825709;29;20061;-82
2023/08/06 16:35:55;;;;;;;9.93;3.00;;;;;;;;;;4842916;29;20049;-82
2023/08/06 16:38:25;;;;;;;7.80;2.70;;;;;;;;;;4811656;29;20057;-82
2023/08/06 16:40:56;;;;;;;6.82;3.00;;;;;;;;;;4825667;29;20054;-82
2023/08/06 16:43:28;;;;;;;9.90;3.35;;;;;;;;;;4842949;29;20046;-82
2023/08/06 16:46:02;;;;;;;8.60;2.90;;;;;;;;;;4842639;29;20054;-84
2023/08/06 16:48:36;;;;;;;6.70;3.13;;;;;;;;;;4827151;29;20057;-82
2023/08/06 16:51:06;;;;;;;10.27;3.20;;;;;;;;;;4842604;29;20513;-84
2023/08/06 16:53:36;;;;;;;6.93;3.80;;;;;;;;;;4826338;29;20054;-83
2023/08/06 16:56:08;;;;;;;5.40;3.03;;;;;;;;;;4825208;29;20053;-80
2023/08/06 16:58:39;;;;;;;9.90;2.67;;;;;;;;;;4842673;29;20041;-81
2023/08/06 17:01:09;;;;;;;8.13;2.90;;;;;;;;;;4842625;29;20057;-82
2023/08/06 17:03:44;;;;;;;9.05;2.90;;;;;;;;;;4842544;29;20056;-82
2023/08/06 17:06:17;;;;;;;9.60;2.40;;;;;;;;;;4841813;29;20042;-80
2023/08/06 17:08:47;;;;;;;6.72;2.92;;;;;;;;;;4842601;29;20054;-82
2023/08/06 17:11:18;;;;;;;7.43;3.05;;;;;;;;;;4842358;29;20061;-80
2023/08/06 17:13:57;;;;;;;7.43;2.72;;;;;;;;;;4826355;29;20069;-82
2023/08/06 17:16:29;;;;;;;7.43;3.17;;;;;;;;;;4842335;29;20429;-81
2023/08/06 17:19:01;;;;;;;6.03;3.10;;;;;;;;;;4842161;29;20046;-81
2023/08/06 17:21:34;;;;;;;8.15;2.95;;;;;;;;;;4841199;29;20061;-81
2023/08/06 17:24:06;;;;;;;8.57;2.92;;;;;;;;;;4842048;29;20061;-81